createdAt,value
2018-04-12T00:00:23.645Z,11.40
2018-04-12T00:00:55.311Z,11.30
2018-04-12T00:01:26.918Z,11.30
2018-04-12T00:01:58.557Z,11.30
2018-04-12T00:02:30.193Z,11.20
2018-04-12T00:03:01.811Z,11.20
2018-04-12T00:03:33.426Z,11.30
2018-04-12T00:04:05.073Z,11.30
2018-04-12T00:04:36.711Z,11.30
2018-04-12T00:05:08.335Z,11.30
2018-04-12T00:05:40.024Z,11.30
2018-04-12T00:06:11.660Z,11.20
2018-04-12T00:06:43.306Z,11.20
2018-04-12T00:07:14.963Z,11.20
2018-04-12T00:07:46.605Z,11.20
2018-04-12T00:08:18.274Z,11.20
2018-04-12T00:08:49.921Z,11.20
2018-04-12T00:09:21.546Z,11.10
2018-04-12T00:09:53.177Z,11.10
2018-04-12T00:10:24.817Z,11.20
2018-04-12T00:10:56.468Z,11.20
2018-04-12T00:11:28.101Z,11.20
2018-04-12T00:11:59.731Z,11.10
2018-04-12T00:12:31.418Z,11.10
2018-04-12T00:13:03.066Z,11.10
2018-04-12T00:13:34.691Z,11.10
2018-04-12T00:14:06.307Z,11.10
2018-04-12T00:14:37.956Z,11.20
2018-04-12T00:15:09.592Z,11.10
2018-04-12T00:15:41.236Z,11.10
2018-04-12T00:16:12.864Z,11.10
2018-04-12T00:16:44.504Z,11.10
2018-04-12T00:17:16.136Z,11.10
2018-04-12T00:17:47.774Z,11.00
2018-04-12T00:18:19.415Z,11.10
2018-04-12T00:18:51.024Z,11.00
2018-04-12T00:19:22.654Z,11.00
2018-04-12T00:19:54.309Z,11.00
2018-04-12T00:20:25.936Z,11.10
2018-04-12T00:20:57.572Z,11.10
2018-04-12T00:21:29.237Z,11.00
2018-04-12T00:22:00.877Z,11.00
2018-04-12T00:22:32.489Z,11.00
2018-04-12T00:23:04.194Z,11.00
2018-04-12T00:23:35.778Z,11.00
2018-04-12T00:24:07.396Z,11.00
2018-04-12T00:24:39.030Z,10.90
2018-04-12T00:25:10.658Z,11.00
2018-04-12T00:25:42.322Z,11.00
2018-04-12T00:26:13.974Z,11.00
2018-04-12T00:26:45.607Z,11.00
2018-04-12T00:27:17.220Z,10.90
2018-04-12T00:27:48.881Z,10.90
2018-04-12T00:28:20.532Z,11.00
2018-04-12T00:28:52.142Z,10.90
2018-04-12T00:29:23.769Z,10.90
2018-04-12T00:29:55.414Z,10.90
2018-04-12T00:30:27.094Z,10.90
2018-04-12T00:30:58.720Z,10.90
2018-04-12T00:31:30.356Z,10.90
2018-04-12T00:32:01.987Z,10.90
2018-04-12T00:32:33.675Z,11.00
2018-04-12T00:33:05.322Z,10.90
2018-04-12T00:33:36.964Z,10.90
2018-04-12T00:34:08.609Z,10.90
2018-04-12T00:34:40.254Z,10.90
2018-04-12T00:35:11.882Z,10.90
2018-04-12T00:35:43.528Z,10.90
2018-04-12T00:36:15.163Z,10.90
2018-04-12T00:36:46.806Z,10.90
2018-04-12T00:37:18.428Z,10.90
2018-04-12T00:37:50.062Z,10.80
2018-04-12T00:38:21.699Z,10.80
2018-04-12T00:38:53.378Z,10.80
2018-04-12T00:39:24.993Z,10.90
2018-04-12T00:39:57.840Z,10.80
2018-04-12T00:40:29.484Z,10.90
2018-04-12T00:41:01.147Z,10.80
2018-04-12T00:41:32.789Z,10.80
2018-04-12T00:42:04.410Z,10.80
2018-04-12T00:42:36.052Z,10.80
2018-04-12T00:43:07.677Z,10.90
2018-04-12T00:43:39.320Z,10.80
2018-04-12T00:44:10.932Z,10.80
2018-04-12T00:44:42.554Z,10.80
2018-04-12T00:45:14.200Z,10.80
2018-04-12T00:45:45.845Z,10.80
2018-04-12T00:46:17.486Z,10.80
2018-04-12T00:46:49.128Z,10.70
2018-04-12T00:47:20.768Z,10.70
2018-04-12T00:47:52.412Z,10.80
2018-04-12T00:48:24.040Z,10.70
2018-04-12T00:48:55.658Z,10.80
2018-04-12T00:49:27.349Z,10.70
2018-04-12T00:49:58.961Z,10.80
2018-04-12T00:50:30.605Z,10.70
2018-04-12T00:51:02.214Z,10.70
2018-04-12T00:51:33.839Z,10.70
2018-04-12T00:52:05.458Z,10.70
2018-04-12T00:52:37.093Z,10.70
2018-04-12T00:53:08.741Z,10.70
2018-04-12T00:53:58.969Z,10.70
2018-04-12T00:54:30.630Z,10.70
2018-04-12T00:55:02.296Z,10.70
2018-04-12T00:55:33.944Z,10.70
2018-04-12T00:56:05.620Z,10.60
2018-04-12T00:56:37.253Z,10.70
2018-04-12T00:57:08.872Z,10.60
2018-04-12T00:57:40.497Z,10.70
2018-04-12T00:58:12.154Z,10.70
2018-04-12T00:58:43.810Z,10.70
2018-04-12T00:59:15.448Z,10.60
2018-04-12T00:59:47.079Z,10.60
2018-04-12T01:00:18.722Z,10.60
2018-04-12T01:00:50.371Z,10.60
2018-04-12T01:01:21.994Z,10.60
2018-04-12T01:01:53.619Z,10.60
2018-04-12T01:02:25.275Z,10.60
2018-04-12T01:02:56.928Z,10.60
2018-04-12T01:03:28.565Z,10.50
2018-04-12T01:04:00.192Z,10.50
2018-04-12T01:04:31.843Z,10.50
2018-04-12T01:05:03.493Z,10.50
2018-04-12T01:05:35.109Z,10.50
2018-04-12T01:06:06.760Z,10.50
2018-04-12T01:06:38.393Z,10.50
2018-04-12T01:07:10.038Z,10.50
2018-04-12T01:07:41.661Z,10.50
2018-04-12T01:08:13.299Z,10.50
2018-04-12T01:08:44.959Z,10.50
2018-04-12T01:09:16.588Z,10.40
2018-04-12T01:09:48.208Z,10.40
2018-04-12T01:10:19.860Z,10.50
2018-04-12T01:10:51.502Z,10.40
2018-04-12T01:11:23.148Z,10.50
2018-04-12T01:11:54.857Z,10.40
2018-04-12T01:12:26.516Z,10.50
2018-04-12T01:12:58.156Z,10.40
2018-04-12T01:13:29.784Z,10.50
2018-04-12T01:14:01.470Z,10.50
2018-04-12T01:14:33.112Z,10.40
2018-04-12T01:15:04.724Z,10.40
2018-04-12T01:15:36.380Z,10.40
2018-04-12T01:16:08.062Z,10.30
2018-04-12T01:16:39.702Z,10.40
2018-04-12T01:17:11.334Z,10.40
2018-04-12T01:17:42.965Z,10.50
2018-04-12T01:18:14.606Z,10.40
2018-04-12T01:18:46.285Z,10.40
2018-04-12T01:19:17.941Z,10.40
2018-04-12T01:19:49.588Z,10.40
2018-04-12T01:20:21.245Z,10.40
2018-04-12T01:20:52.908Z,10.40
2018-04-12T01:21:24.523Z,10.30
2018-04-12T01:21:56.151Z,10.30
2018-04-12T01:22:27.777Z,10.40
2018-04-12T01:22:59.434Z,10.40
2018-04-12T01:23:31.078Z,10.30
2018-04-12T01:24:02.731Z,10.40
2018-04-12T01:24:34.381Z,10.30
2018-04-12T01:25:06.004Z,10.30
2018-04-12T01:25:37.739Z,10.30
2018-04-12T01:26:09.423Z,10.30
2018-04-12T01:26:41.056Z,10.30
2018-04-12T01:27:12.674Z,10.30
2018-04-12T01:27:44.295Z,10.30
2018-04-12T01:28:15.938Z,10.30
2018-04-12T01:28:47.573Z,10.30
2018-04-12T01:29:19.236Z,10.30
2018-04-12T01:29:50.861Z,10.20
2018-04-12T01:30:22.522Z,10.30
2018-04-12T01:30:54.153Z,10.20
2018-04-12T01:31:25.797Z,10.30
2018-04-12T01:31:57.445Z,10.30
2018-04-12T01:32:29.017Z,10.30
2018-04-12T01:33:14.207Z,10.30
2018-04-12T01:33:45.851Z,10.30
2018-04-12T01:34:17.520Z,10.20
2018-04-12T01:34:49.162Z,10.20
2018-04-12T01:35:20.830Z,10.30
2018-04-12T01:35:52.468Z,10.30
2018-04-12T01:36:24.110Z,10.30
2018-04-12T01:36:55.744Z,10.20
2018-04-12T01:37:27.367Z,10.20
2018-04-12T01:37:58.980Z,10.20
2018-04-12T01:38:30.605Z,10.20
2018-04-12T01:39:02.304Z,10.20
2018-04-12T01:39:33.951Z,10.20
2018-04-12T01:40:05.574Z,10.20
2018-04-12T01:40:37.241Z,10.20
2018-04-12T01:41:08.863Z,10.20
2018-04-12T01:41:40.479Z,10.20
2018-04-12T01:42:12.100Z,10.10
2018-04-12T01:42:43.732Z,10.20
2018-04-12T01:43:15.371Z,10.10
2018-04-12T01:43:46.991Z,10.20
2018-04-12T01:44:18.659Z,10.20
2018-04-12T01:44:50.289Z,10.20
2018-04-12T01:45:21.925Z,10.20
2018-04-12T01:45:53.571Z,10.10
2018-04-12T01:46:25.175Z,10.10
2018-04-12T01:46:56.817Z,10.20
2018-04-12T01:47:28.463Z,10.20
2018-04-12T01:48:00.113Z,10.20
2018-04-12T01:48:31.744Z,10.10
2018-04-12T01:49:03.364Z,10.10
2018-04-12T01:49:34.979Z,10.20
2018-04-12T01:50:06.599Z,10.10
2018-04-12T01:50:38.200Z,10.20
2018-04-12T01:51:09.811Z,10.10
2018-04-12T01:51:41.720Z,10.10
2018-04-12T01:52:13.346Z,10.00
2018-04-12T01:52:44.999Z,10.10
2018-04-12T01:53:16.667Z,10.00
2018-04-12T01:53:48.297Z,10.10
2018-04-12T01:54:19.937Z,10.10
2018-04-12T01:54:51.592Z,10.10
2018-04-12T01:55:23.221Z,10.00
2018-04-12T01:55:54.869Z,10.10
2018-04-12T01:56:26.518Z,10.10
2018-04-12T01:56:58.143Z,10.10
2018-04-12T01:57:29.775Z,10.00
2018-04-12T01:58:01.421Z,10.10
2018-04-12T01:58:33.079Z,10.10
2018-04-12T01:59:04.706Z,10.10
2018-04-12T01:59:36.367Z,10.10
2018-04-12T02:00:08.040Z,10.10
2018-04-12T02:00:39.682Z,10.00
2018-04-12T02:01:11.369Z,10.00
2018-04-12T02:01:43.030Z,10.10
2018-04-12T02:02:14.669Z,10.00
2018-04-12T02:02:46.294Z,10.00
2018-04-12T02:03:17.932Z,10.10
2018-04-12T02:03:49.570Z,10.00
2018-04-12T02:04:21.233Z,10.00
2018-04-12T02:04:52.860Z,10.00
2018-04-12T02:05:24.498Z,10.00
2018-04-12T02:05:56.142Z,10.00
2018-04-12T02:06:27.791Z,10.00
2018-04-12T02:06:59.414Z,10.00
2018-04-12T02:07:31.071Z,10.00
2018-04-12T02:08:02.697Z,10.00
2018-04-12T02:08:34.329Z,10.00
2018-04-12T02:09:05.956Z,10.00
2018-04-12T02:09:37.617Z,10.00
2018-04-12T02:10:09.247Z,10.00
2018-04-12T02:10:40.896Z,10.00
2018-04-12T02:11:12.557Z,10.00
2018-04-12T02:11:44.206Z,10.00
2018-04-12T02:12:15.850Z,10.00
2018-04-12T02:12:47.502Z,10.00
2018-04-12T02:13:19.153Z,9.90
2018-04-12T02:13:50.804Z,9.90
2018-04-12T02:14:22.447Z,9.90
2018-04-12T02:14:54.097Z,10.00
2018-04-12T02:15:25.747Z,10.00
2018-04-12T02:15:57.510Z,10.00
2018-04-12T02:16:29.142Z,9.90
2018-04-12T02:17:00.833Z,9.90
2018-04-12T02:17:32.510Z,9.90
2018-04-12T02:18:04.396Z,9.90
2018-04-12T02:18:36.202Z,9.90
2018-04-12T02:19:07.890Z,9.90
2018-04-12T02:19:39.631Z,10.00
2018-04-12T02:20:11.272Z,9.90
2018-04-12T02:20:42.882Z,9.90
2018-04-12T02:21:14.502Z,9.90
2018-04-12T02:21:46.126Z,9.90
2018-04-12T02:22:17.796Z,9.90
2018-04-12T02:22:49.452Z,10.00
2018-04-12T02:23:21.076Z,10.00
2018-04-12T02:23:52.703Z,9.90
2018-04-12T02:24:24.326Z,9.90
2018-04-12T02:24:55.955Z,10.00
2018-04-12T02:25:27.586Z,10.00
2018-04-12T02:25:59.216Z,10.00
2018-04-12T02:26:30.892Z,10.00
2018-04-12T02:27:02.554Z,9.90
2018-04-12T02:27:34.195Z,10.00
2018-04-12T02:28:05.829Z,10.00
2018-04-12T02:28:37.462Z,10.00
2018-04-12T02:29:09.083Z,10.00
2018-04-12T02:29:40.735Z,10.00
2018-04-12T02:30:12.411Z,10.10
2018-04-12T02:30:44.049Z,10.00
2018-04-12T02:31:15.702Z,10.10
2018-04-12T02:31:47.339Z,10.10
2018-04-12T02:32:19.010Z,10.10
2018-04-12T02:32:50.635Z,10.10
2018-04-12T02:33:22.263Z,10.20
2018-04-12T02:33:53.891Z,10.10
2018-04-12T02:34:25.550Z,10.00
2018-04-12T02:34:57.244Z,10.20
2018-04-12T02:35:28.841Z,10.20
2018-04-12T02:36:00.496Z,10.10
2018-04-12T02:36:32.125Z,10.20
2018-04-12T02:37:03.755Z,10.20
2018-04-12T02:37:35.425Z,10.20
2018-04-12T02:38:07.095Z,10.20
2018-04-12T02:38:38.749Z,10.20
2018-04-12T02:39:10.367Z,10.20
2018-04-12T02:39:41.997Z,10.20
2018-04-12T02:40:13.621Z,10.30
2018-04-12T02:40:45.236Z,10.20
2018-04-12T02:41:16.912Z,10.20
2018-04-12T02:41:48.543Z,10.20
2018-04-12T02:42:20.152Z,10.20
2018-04-12T02:42:51.784Z,10.10
2018-04-12T02:43:23.394Z,10.20
2018-04-12T02:43:55.021Z,10.30
2018-04-12T02:44:26.654Z,10.30
2018-04-12T02:44:58.295Z,10.30
2018-04-12T02:45:29.939Z,10.20
2018-04-12T02:46:01.569Z,10.30
2018-04-12T02:46:33.246Z,10.30
2018-04-12T02:47:04.890Z,10.30
2018-04-12T02:47:36.520Z,10.30
2018-04-12T02:48:08.156Z,10.30
2018-04-12T02:48:39.792Z,10.20
2018-04-12T02:49:11.415Z,10.30
2018-04-12T02:49:43.036Z,10.20
2018-04-12T02:50:14.672Z,10.20
2018-04-12T02:50:46.320Z,10.30
2018-04-12T02:51:17.944Z,10.30
2018-04-12T02:51:49.588Z,10.30
2018-04-12T02:52:21.208Z,10.20
2018-04-12T02:52:52.818Z,10.30
2018-04-12T02:53:24.439Z,10.20
2018-04-12T02:53:56.088Z,10.20
2018-04-12T02:54:27.720Z,10.20
2018-04-12T02:54:59.348Z,10.30
2018-04-12T02:56:33.822Z,10.20
2018-04-12T02:57:05.446Z,10.20
2018-04-12T02:57:37.091Z,10.20
2018-04-12T02:58:08.708Z,10.10
2018-04-12T02:58:40.344Z,10.20
2018-04-12T02:59:11.976Z,10.20
2018-04-12T02:59:43.598Z,10.10
2018-04-12T03:00:15.237Z,10.20
2018-04-12T03:00:46.877Z,10.20
2018-04-12T03:01:18.524Z,10.10
2018-04-12T03:01:50.196Z,10.20
2018-04-12T03:02:21.823Z,10.10
2018-04-12T03:02:53.471Z,10.10
2018-04-12T03:03:25.148Z,10.10
2018-04-12T03:03:56.820Z,10.10
2018-04-12T03:04:28.458Z,10.10
2018-04-12T03:05:00.109Z,10.10
2018-04-12T03:05:31.776Z,10.10
2018-04-12T03:06:03.488Z,10.10
2018-04-12T03:06:35.108Z,10.10
2018-04-12T03:07:06.740Z,10.20
2018-04-12T03:07:38.372Z,10.10
2018-04-12T03:08:09.986Z,10.10
2018-04-12T03:08:41.609Z,10.10
2018-04-12T03:09:13.236Z,10.10
2018-04-12T03:09:44.897Z,10.10
2018-04-12T03:10:16.524Z,10.10
2018-04-12T03:10:48.164Z,10.10
2018-04-12T03:11:19.782Z,10.10
2018-04-12T03:11:51.421Z,10.10
2018-04-12T03:12:23.102Z,10.10
2018-04-12T03:12:54.704Z,10.10
2018-04-12T03:13:26.336Z,10.10
2018-04-12T03:13:57.978Z,10.00
2018-04-12T03:14:29.609Z,10.10
2018-04-12T03:15:01.239Z,10.10
2018-04-12T03:15:32.864Z,10.00
2018-04-12T03:16:04.540Z,10.10
2018-04-12T03:16:36.199Z,10.00
2018-04-12T03:17:07.830Z,10.10
2018-04-12T03:17:39.512Z,10.00
2018-04-12T03:18:11.142Z,10.10
2018-04-12T03:18:42.784Z,10.00
2018-04-12T03:19:14.476Z,10.10
2018-04-12T03:19:46.104Z,10.00
2018-04-12T03:20:17.724Z,10.00
2018-04-12T03:20:49.363Z,10.00
2018-04-12T03:21:21.026Z,10.00
2018-04-12T03:21:52.657Z,10.00
2018-04-12T03:22:24.285Z,10.00
2018-04-12T03:22:55.915Z,9.90
2018-04-12T03:23:27.532Z,10.00
2018-04-12T03:23:59.149Z,9.90
2018-04-12T03:24:30.830Z,9.90
2018-04-12T03:25:02.450Z,10.00
2018-04-12T03:25:34.068Z,9.90
2018-04-12T03:26:05.712Z,9.90
2018-04-12T03:26:37.338Z,9.90
2018-04-12T03:27:08.957Z,9.90
2018-04-12T03:27:40.580Z,9.90
2018-04-12T03:28:12.199Z,10.00
2018-04-12T03:28:43.840Z,9.90
2018-04-12T03:29:15.458Z,9.80
2018-04-12T03:29:47.150Z,9.90
2018-04-12T03:30:18.784Z,9.90
2018-04-12T03:30:50.417Z,9.80
2018-04-12T03:31:22.052Z,9.90
2018-04-12T03:31:53.708Z,9.80
2018-04-12T03:32:25.333Z,9.80
2018-04-12T03:32:56.952Z,9.80
2018-04-12T03:33:28.594Z,9.80
2018-04-12T03:34:00.241Z,9.80
2018-04-12T03:34:31.861Z,9.90
2018-04-12T03:35:03.473Z,9.90
2018-04-12T03:35:35.110Z,9.80
2018-04-12T03:36:06.751Z,9.80
2018-04-12T03:36:38.417Z,9.80
2018-04-12T03:37:10.050Z,9.80
2018-04-12T03:37:41.675Z,9.80
2018-04-12T03:38:13.306Z,9.80
2018-04-12T03:38:44.923Z,9.80
2018-04-12T03:39:16.549Z,9.80
2018-04-12T03:39:48.169Z,9.80
2018-04-12T03:40:19.779Z,9.80
2018-04-12T03:40:51.413Z,9.70
2018-04-12T03:41:23.051Z,9.80
2018-04-12T03:41:54.668Z,9.70
2018-04-12T03:42:26.293Z,9.80
2018-04-12T03:42:57.963Z,9.70
2018-04-12T03:43:29.595Z,9.70
2018-04-12T03:44:01.231Z,9.70
2018-04-12T03:44:32.866Z,9.70
2018-04-12T03:45:04.496Z,9.70
2018-04-12T03:45:36.107Z,9.70
2018-04-12T03:46:07.734Z,9.70
2018-04-12T03:46:39.365Z,9.70
2018-04-12T03:47:11.000Z,9.70
2018-04-12T03:47:42.628Z,9.60
2018-04-12T03:48:14.231Z,9.70
2018-04-12T03:48:45.923Z,9.70
2018-04-12T03:49:17.499Z,9.70
2018-04-12T03:49:49.123Z,9.70
2018-04-12T03:50:20.809Z,9.70
2018-04-12T03:50:52.373Z,9.70
2018-04-12T03:51:23.971Z,9.70
2018-04-12T03:51:55.607Z,9.70
2018-04-12T03:52:27.245Z,9.70
2018-04-12T03:52:58.881Z,9.70
2018-04-12T03:53:30.483Z,9.70
2018-04-12T03:54:02.123Z,9.70
2018-04-12T03:54:33.757Z,9.80
2018-04-12T03:55:05.418Z,9.70
2018-04-12T03:55:37.035Z,9.70
2018-04-12T03:56:08.627Z,9.80
2018-04-12T03:56:40.331Z,9.60
2018-04-12T03:57:11.961Z,9.60
2018-04-12T03:57:43.566Z,9.60
2018-04-12T03:58:15.190Z,9.70
2018-04-12T03:58:46.817Z,9.70
2018-04-12T03:59:18.467Z,9.70
2018-04-12T03:59:50.123Z,9.70
2018-04-12T04:00:21.785Z,9.50
2018-04-12T04:00:53.393Z,9.60
2018-04-12T04:01:25.025Z,9.60
2018-04-12T04:01:56.654Z,9.70
2018-04-12T04:02:28.309Z,9.60
2018-04-12T04:02:59.961Z,9.60
2018-04-12T04:03:31.591Z,9.60
2018-04-12T04:04:03.219Z,9.60
2018-04-12T04:04:34.823Z,9.60
2018-04-12T04:05:06.462Z,9.60
2018-04-12T04:05:38.085Z,9.60
2018-04-12T04:06:09.697Z,9.70
2018-04-12T04:06:41.331Z,9.60
2018-04-12T04:07:12.977Z,9.60
2018-04-12T04:07:44.607Z,9.60
2018-04-12T04:08:16.271Z,9.50
2018-04-12T04:08:47.897Z,9.50
2018-04-12T04:09:19.519Z,9.50
2018-04-12T04:09:51.143Z,9.60
2018-04-12T04:10:22.761Z,9.60
2018-04-12T04:10:54.393Z,9.60
2018-04-12T04:11:26.015Z,9.50
2018-04-12T04:11:57.645Z,9.60
2018-04-12T04:12:29.325Z,9.50
2018-04-12T04:13:00.977Z,9.50
2018-04-12T04:13:32.604Z,9.50
2018-04-12T04:14:04.308Z,9.50
2018-04-12T04:14:40.965Z,9.60
2018-04-12T04:15:31.070Z,9.50
2018-04-12T04:16:21.135Z,9.50
2018-04-12T04:17:11.277Z,9.50
2018-04-12T04:18:01.315Z,9.50
2018-04-12T04:18:51.503Z,9.50
2018-04-12T04:19:41.735Z,9.50
2018-04-12T04:20:31.901Z,9.50
2018-04-12T04:21:10.240Z,9.50
2018-04-12T04:21:41.892Z,9.50
2018-04-12T04:22:13.525Z,9.50
2018-04-12T04:22:45.143Z,9.50
2018-04-12T04:23:16.763Z,9.40
2018-04-12T04:23:48.370Z,9.60
2018-04-12T04:24:19.994Z,9.50
2018-04-12T04:24:51.606Z,9.50
2018-04-12T04:25:23.244Z,9.50
2018-04-12T04:25:54.883Z,9.40
2018-04-12T04:26:26.529Z,9.50
2018-04-12T04:26:58.150Z,9.40
2018-04-12T04:27:29.766Z,9.50
2018-04-12T04:28:01.395Z,9.40
2018-04-12T04:28:33.019Z,9.50
2018-04-12T04:29:04.622Z,9.50
2018-04-12T04:29:36.251Z,9.40
2018-04-12T04:30:07.868Z,9.40
2018-04-12T04:30:39.489Z,9.50
2018-04-12T04:31:11.120Z,9.40
2018-04-12T04:31:42.760Z,9.50
2018-04-12T04:32:14.380Z,9.50
2018-04-12T04:32:46.014Z,9.40
2018-04-12T04:33:17.642Z,9.50
2018-04-12T04:33:49.264Z,9.50
2018-04-12T04:34:20.895Z,9.40
2018-04-12T04:34:52.529Z,9.50
2018-04-12T04:35:24.173Z,9.50
2018-04-12T04:35:55.803Z,9.50
2018-04-12T04:36:27.432Z,9.50
2018-04-12T04:36:59.074Z,9.50
2018-04-12T04:37:30.719Z,9.60
2018-04-12T04:38:02.356Z,9.60
2018-04-12T04:38:33.986Z,9.60
2018-04-12T04:39:05.630Z,9.60
2018-04-12T04:39:37.270Z,9.60
2018-04-12T04:40:08.940Z,9.70
2018-04-12T04:40:40.563Z,9.60
2018-04-12T04:41:12.192Z,9.60
2018-04-12T04:41:43.846Z,9.60
2018-04-12T04:42:15.484Z,9.70
2018-04-12T04:42:47.141Z,9.70
2018-04-12T04:43:18.772Z,9.70
2018-04-12T04:43:50.376Z,9.70
2018-04-12T04:44:22.003Z,9.70
2018-04-12T04:44:53.664Z,9.80
2018-04-12T04:45:25.334Z,9.80
2018-04-12T04:45:56.957Z,9.80
2018-04-12T04:46:28.596Z,9.80
2018-04-12T04:47:00.238Z,9.80
2018-04-12T04:47:31.873Z,9.80
2018-04-12T04:48:03.530Z,9.90
2018-04-12T04:48:35.174Z,9.80
2018-04-12T04:49:06.800Z,9.90
2018-04-12T04:49:38.423Z,9.90
2018-04-12T04:50:10.064Z,9.90
2018-04-12T04:50:41.691Z,9.90
2018-04-12T04:51:13.321Z,10.00
2018-04-12T04:51:44.947Z,10.00
2018-04-12T04:52:16.592Z,10.00
2018-04-12T04:52:48.216Z,10.00
2018-04-12T04:53:19.851Z,10.10
2018-04-12T04:53:51.455Z,10.10
2018-04-12T04:54:23.089Z,10.10
2018-04-12T04:54:54.752Z,10.10
2018-04-12T04:55:26.339Z,10.10
2018-04-12T04:55:57.949Z,10.10
2018-04-12T04:56:29.680Z,10.10
2018-04-12T04:57:01.317Z,10.10
2018-04-12T04:57:32.967Z,10.10
2018-04-12T04:58:04.647Z,10.10
2018-04-12T04:58:36.267Z,10.00
2018-04-12T04:59:07.893Z,10.10
2018-04-12T04:59:39.519Z,10.10
2018-04-12T05:00:11.141Z,10.10
2018-04-12T05:00:42.829Z,10.10
2018-04-12T05:01:14.450Z,10.10
2018-04-12T05:01:46.089Z,10.10
2018-04-12T05:02:17.737Z,10.10
2018-04-12T05:02:49.402Z,10.10
2018-04-12T05:03:21.055Z,10.00
2018-04-12T05:03:52.678Z,10.00
2018-04-12T05:04:24.304Z,10.00
2018-04-12T05:04:55.946Z,10.00
2018-04-12T05:05:27.601Z,9.90
2018-04-12T05:05:59.277Z,10.00
2018-04-12T05:06:30.933Z,10.00
2018-04-12T05:07:02.584Z,10.00
2018-04-12T05:07:34.259Z,10.10
2018-04-12T05:08:05.900Z,10.10
2018-04-12T05:08:37.553Z,10.10
2018-04-12T05:09:09.222Z,10.20
2018-04-12T05:09:40.850Z,10.20
2018-04-12T05:10:12.523Z,10.20
2018-04-12T05:10:44.180Z,10.10
2018-04-12T05:11:15.807Z,10.20
2018-04-12T05:11:47.421Z,10.10
2018-04-12T05:12:19.060Z,10.20
2018-04-12T05:12:50.677Z,10.20
2018-04-12T05:13:22.318Z,10.10
2018-04-12T05:13:53.949Z,10.10
2018-04-12T05:14:25.571Z,10.10
2018-04-12T05:14:57.193Z,10.20
2018-04-12T05:15:28.856Z,10.10
2018-04-12T05:16:00.457Z,10.20
2018-04-12T05:16:32.100Z,10.30
2018-04-12T05:17:03.735Z,10.30
2018-04-12T05:17:35.355Z,10.30
2018-04-12T05:18:06.973Z,10.30
2018-04-12T05:18:38.625Z,10.40
2018-04-12T05:19:10.258Z,10.40
2018-04-12T05:19:41.885Z,10.30
2018-04-12T05:20:13.525Z,10.30
2018-04-12T05:20:45.193Z,10.30
2018-04-12T05:21:16.800Z,10.30
2018-04-12T05:21:48.443Z,10.40
2018-04-12T05:22:20.079Z,10.30
2018-04-12T05:22:51.729Z,10.40
2018-04-12T05:23:23.373Z,10.30
2018-04-12T05:23:55.021Z,10.40
2018-04-12T05:24:26.661Z,10.40
2018-04-12T05:24:58.297Z,10.40
2018-04-12T05:25:29.919Z,10.40
2018-04-12T05:26:01.554Z,10.40
2018-04-12T05:26:33.197Z,10.40
2018-04-12T05:27:04.865Z,10.40
2018-04-12T05:27:36.443Z,10.40
2018-04-12T05:28:08.072Z,10.40
2018-04-12T05:28:39.691Z,10.30
2018-04-12T05:29:11.354Z,10.40
2018-04-12T05:29:42.989Z,10.50
2018-04-12T05:30:14.655Z,10.40
2018-04-12T05:30:46.268Z,10.50
2018-04-12T05:31:17.906Z,10.50
2018-04-12T05:31:49.515Z,10.40
2018-04-12T05:32:21.165Z,10.50
2018-04-12T05:32:52.789Z,10.60
2018-04-12T05:33:24.435Z,10.70
2018-04-12T05:33:56.110Z,10.70
2018-04-12T05:34:27.775Z,10.60
2018-04-12T05:34:59.430Z,10.60
2018-04-12T05:35:31.035Z,10.70
2018-04-12T05:36:02.661Z,10.70
2018-04-12T05:36:34.279Z,10.70
2018-04-12T05:37:05.940Z,10.70
2018-04-12T05:37:37.571Z,10.70
2018-04-12T05:38:09.185Z,10.80
2018-04-12T05:38:40.815Z,10.80
2018-04-12T05:39:12.447Z,10.80
2018-04-12T05:39:44.105Z,10.60
2018-04-12T05:40:15.752Z,10.70
2018-04-12T05:40:47.375Z,10.70
2018-04-12T05:41:18.995Z,10.60
2018-04-12T05:41:50.626Z,10.70
2018-04-12T05:42:22.261Z,10.70
2018-04-12T05:42:53.872Z,10.70
2018-04-12T05:43:25.513Z,10.70
2018-04-12T05:43:57.141Z,10.70
2018-04-12T05:44:28.753Z,10.70
2018-04-12T05:45:00.387Z,10.60
2018-04-12T05:45:32.025Z,10.70
2018-04-12T05:46:03.651Z,10.70
2018-04-12T05:46:35.261Z,10.70
2018-04-12T05:47:06.875Z,10.80
2018-04-12T05:47:38.520Z,10.80
2018-04-12T05:48:10.165Z,10.70
2018-04-12T05:48:41.780Z,10.80
2018-04-12T05:49:13.431Z,10.80
2018-04-12T05:49:45.057Z,10.80
2018-04-12T05:50:16.721Z,10.80
2018-04-12T05:50:48.477Z,10.70
2018-04-12T05:51:20.121Z,10.80
2018-04-12T05:51:51.794Z,10.80
2018-04-12T05:52:23.446Z,10.90
2018-04-12T05:52:55.133Z,10.90
2018-04-12T05:53:26.735Z,10.90
2018-04-12T05:53:58.366Z,10.90
2018-04-12T05:54:30.007Z,10.90
2018-04-12T05:55:01.627Z,11.00
2018-04-12T05:55:33.253Z,11.00
2018-04-12T05:56:04.897Z,11.00
2018-04-12T05:56:36.550Z,11.20
2018-04-12T05:57:08.175Z,11.10
2018-04-12T05:57:39.782Z,11.10
2018-04-12T05:58:11.428Z,11.00
2018-04-12T05:58:43.082Z,11.00
2018-04-12T05:59:14.706Z,11.10
2018-04-12T05:59:46.310Z,11.10
2018-04-12T06:00:17.940Z,11.20
2018-04-12T06:00:49.604Z,11.20
2018-04-12T06:01:21.234Z,11.20
2018-04-12T06:01:52.858Z,11.20
2018-04-12T06:02:24.509Z,11.20
2018-04-12T06:02:56.140Z,11.20
2018-04-12T06:03:27.766Z,11.30
2018-04-12T06:03:59.402Z,11.20
2018-04-12T06:04:31.060Z,11.20
2018-04-12T06:05:02.709Z,11.30
2018-04-12T06:05:34.380Z,11.30
2018-04-12T06:06:05.986Z,11.30
2018-04-12T06:06:37.625Z,11.40
2018-04-12T06:07:09.262Z,11.40
2018-04-12T06:07:40.884Z,11.40
2018-04-12T06:08:12.517Z,11.40
2018-04-12T06:08:44.139Z,11.30
2018-04-12T06:09:15.771Z,11.30
2018-04-12T06:09:47.419Z,11.20
2018-04-12T06:10:19.031Z,11.30
2018-04-12T06:10:50.641Z,11.30
2018-04-12T06:11:22.279Z,11.30
2018-04-12T06:11:53.897Z,11.50
2018-04-12T06:12:25.529Z,11.30
2018-04-12T06:12:57.161Z,11.50
2018-04-12T06:13:28.813Z,11.40
2018-04-12T06:14:00.474Z,11.40
2018-04-12T06:14:32.087Z,11.50
2018-04-12T06:15:03.733Z,11.40
2018-04-12T06:15:35.382Z,11.50
2018-04-12T06:16:06.993Z,11.50
2018-04-12T06:16:38.657Z,11.60
2018-04-12T06:17:10.272Z,11.50
2018-04-12T06:17:41.929Z,11.70
2018-04-12T06:18:13.551Z,11.50
2018-04-12T06:18:45.178Z,11.60
2018-04-12T06:19:16.834Z,11.60
2018-04-12T06:19:48.526Z,11.60
2018-04-12T06:20:20.161Z,11.60
2018-04-12T06:20:51.822Z,11.60
2018-04-12T06:21:23.506Z,11.50
2018-04-12T06:21:55.091Z,11.60
2018-04-12T06:22:26.743Z,11.60
2018-04-12T06:22:58.365Z,11.60
2018-04-12T06:23:29.998Z,11.60
2018-04-12T06:24:01.639Z,11.60
2018-04-12T06:24:33.251Z,11.50
2018-04-12T06:25:04.887Z,11.60
2018-04-12T06:25:36.563Z,11.60
2018-04-12T06:26:08.174Z,11.60
2018-04-12T06:26:39.842Z,11.50
2018-04-12T06:27:11.482Z,11.60
2018-04-12T06:27:43.114Z,11.60
2018-04-12T06:28:14.746Z,11.60
2018-04-12T06:28:46.377Z,11.60
2018-04-12T06:29:18.004Z,11.60
2018-04-12T06:29:49.628Z,11.60
2018-04-12T06:30:21.252Z,11.70
2018-04-12T06:30:52.889Z,11.70
2018-04-12T06:31:24.552Z,11.70
2018-04-12T06:31:56.164Z,11.80
2018-04-12T06:32:27.815Z,11.80
2018-04-12T06:32:59.449Z,11.80
2018-04-12T06:33:31.055Z,11.80
2018-04-12T06:34:02.707Z,11.80
2018-04-12T06:34:34.341Z,11.90
2018-04-12T06:35:05.964Z,11.90
2018-04-12T06:35:37.591Z,12.00
2018-04-12T06:36:09.225Z,12.00
2018-04-12T06:36:40.875Z,12.00
2018-04-12T06:37:12.513Z,12.00
2018-04-12T06:37:44.151Z,11.90
2018-04-12T06:38:15.786Z,11.90
2018-04-12T06:38:47.414Z,11.90
2018-04-12T06:39:19.043Z,12.00
2018-04-12T06:39:50.725Z,12.00
2018-04-12T06:40:22.319Z,11.90
2018-04-12T06:40:53.930Z,11.90
2018-04-12T06:41:25.555Z,11.90
2018-04-12T06:41:57.193Z,11.90
2018-04-12T06:42:28.830Z,11.90
2018-04-12T06:43:00.468Z,11.90
2018-04-12T06:43:32.091Z,11.80
2018-04-12T06:44:03.767Z,11.90
2018-04-12T06:44:35.401Z,11.90
2018-04-12T06:45:07.050Z,12.00
2018-04-12T06:45:38.693Z,12.00
2018-04-12T06:46:10.310Z,11.90
2018-04-12T06:46:41.981Z,11.90
2018-04-12T06:47:13.594Z,11.90
2018-04-12T06:47:45.209Z,12.00
2018-04-12T06:48:16.864Z,12.10
2018-04-12T06:48:48.484Z,11.90
2018-04-12T06:49:20.110Z,12.00
2018-04-12T06:49:51.767Z,12.00
2018-04-12T06:50:23.436Z,12.00
2018-04-12T06:50:55.127Z,11.90
2018-04-12T06:51:26.763Z,11.90
2018-04-12T06:51:58.408Z,11.90
2018-04-12T06:52:30.068Z,11.80
2018-04-12T06:53:01.702Z,11.90
2018-04-12T06:53:33.358Z,11.90
2018-04-12T06:54:05.021Z,12.00
2018-04-12T06:54:36.629Z,11.90